To NAV CANADA Home Page Login to a new session Search on AWWS site Disclaimer Vers la page française équivalente Tips FAQ What's new on the site To the Forecasts and Observations / NOTAM section To "File a Flight Plan" website Publications and other links Update of the User's profile FIC Telephone Numbers My Weather Data Folder Route Weather Data Regional Weather Data Local Weather Data To the Forecasts and Observations / NOTAM section
Request Generated 04/25/2019 at 08:05:05 UTC . Weather information available at that time is displayed.

METAR/TAF

PAULATUK (NORA ALIQATCHIALUK RUBEN)/NT    (show WxCam)

LWIS CYPC 250800Z AUTO 24013KT M13/M16 A3033=
LWIS CYPC 250700Z AUTO 25013KT M14/M16 A3033=
LWIS CYPC 250600Z AUTO 27013KT M12/M15 A3034=

*** REMARK        : Forecast period has ended; this was the last TAF issued
*** REMARQUE : La période de prévision est échue; ceci était le dernier TAF qui a été émis
TAF CYPC 241838Z 2419/2423 28005KT P6SM FEW030
RMK NXT FCST WILL BE ISSUED AT 251445Z=
Your time UTC time
Weather data provided by Environment Canada and NAV CANADA